Time;durP1;ratioP1;P1;durP2;ratioP2;P2;SDS_P1;SDS_P2;PMS_P1;PMS_P2;Temp;Humidity;BMP_temperature;BMP_pressure;BME280_temperature;BME280_humidity;BME280_pressure;Samples;Min_cycle;Max_cycle;Signal;HPM_P1;HPM_P2
2022/01/10 00:00:40;;;;;;;12.27;9.20;;;;;;;18.48;42.09;100200.97;4992644;28;20050;-77
2022/01/10 00:03:08;;;;;;;11.60;9.45;;;;;;;18.48;42.29;100203.63;4992566;28;20055;-77
2022/01/10 00:05:39;;;;;;;10.02;9.00;;;;;;;18.48;41.93;100195.59;4992429;28;20557;-77
2022/01/10 00:08:07;;;;;;;12.18;9.60;;;;;;;18.49;42.06;100194.59;4992564;28;20525;-77
2022/01/10 00:10:35;;;;;;;9.98;8.88;;;;;;;18.50;42.03;100193.59;4992660;28;20057;-77
2022/01/10 00:13:03;;;;;;;11.38;9.25;;;;;;;18.51;41.80;100187.25;4992542;28;20050;-77
2022/01/10 00:15:30;;;;;;;9.65;8.65;;;;;;;18.51;41.83;100189.94;4991879;28;20097;-77
2022/01/10 00:17:57;;;;;;;9.98;8.77;;;;;;;18.51;41.70;100182.75;4991830;28;20073;-77
2022/01/10 00:20:25;;;;;;;9.63;8.63;;;;;;;18.52;41.67;100172.88;4991962;28;20059;-76
2022/01/10 00:22:53;;;;;;;9.35;8.23;;;;;;;18.53;41.74;100177.25;4991210;28;20498;-77
2022/01/10 00:25:22;;;;;;;9.93;8.98;;;;;;;18.53;41.60;100167.38;4991569;28;20050;-77
2022/01/10 00:27:53;;;;;;;9.65;8.05;;;;;;;18.54;41.46;100177.09;4993257;28;20054;-77
2022/01/10 00:30:22;;;;;;;9.93;8.93;;;;;;;18.54;41.46;100170.91;4992724;28;20502;-76
2022/01/10 00:32:51;;;;;;;11.10;8.48;;;;;;;18.55;41.36;100172.56;4993060;28;20474;-76
2022/01/10 00:35:19;;;;;;;9.13;8.18;;;;;;;18.56;41.26;100173.44;4992541;28;20046;-77
2022/01/10 00:37:47;;;;;;;8.63;7.63;;;;;;;18.56;41.33;100176.97;4994935;28;20047;-77
2022/01/10 00:40:16;;;;;;;8.77;7.88;;;;;;;18.56;41.13;100166.25;4998034;28;20401;-77
2022/01/10 00:42:52;;;;;;;9.38;8.45;;;;;;;18.57;41.07;100177.81;4998260;28;20050;-76
2022/01/10 00:45:23;;;;;;;8.90;7.88;;;;;;;18.57;41.04;100178.66;4996600;28;20511;-77
2022/01/10 00:47:51;;;;;;;9.98;7.30;;;;;;;18.58;40.98;100179.50;4997739;28;20053;-77
2022/01/10 00:50:19;;;;;;;8.60;7.72;;;;;;;18.59;41.15;100181.19;4996075;28;20046;-77
2022/01/10 00:52:47;;;;;;;8.68;7.72;;;;;;;18.58;41.28;100190.22;4996115;28;20051;-76
2022/01/10 00:55:14;;;;;;;8.50;7.65;;;;;;;18.59;41.09;100195.44;4996307;28;20073;-76
2022/01/10 00:57:42;;;;;;;7.88;7.15;;;;;;;18.58;40.98;100201.78;4997474;28;20082;-76
2022/01/10 01:00:12;;;;;;;8.48;7.68;;;;;;;18.58;41.00;100198.25;4997900;28;20061;-76
2022/01/10 01:02:39;;;;;;;7.72;6.93;;;;;;;18.59;40.80;100203.47;4997897;28;20042;-76
2022/01/10 01:05:11;;;;;;;7.68;6.57;;;;;;;18.60;40.95;100204.34;4997098;28;20521;-76
2022/01/10 01:07:38;;;;;;;7.90;7.10;;;;;;;18.59;40.84;100203.47;4995641;28;20054;-76
2022/01/10 01:12:53;;;;;;;8.00;7.20;;;;;;;18.59;40.71;100208.00;4996004;28;20046;-76
2022/01/10 01:15:25;;;;;;;7.90;7.15;;;;;;;18.58;40.83;100199.09;4995493;28;20073;-76
2022/01/10 01:26:03;;;;;;;8.15;6.80;;;;;;;18.56;40.65;100224.38;4995625;28;20054;-75
2022/01/10 01:28:31;;;;;;;7.78;6.90;;;;;;;18.56;40.63;100225.22;4995765;28;20061;-75
2022/01/10 01:30:59;;;;;;;8.07;7.00;;;;;;;18.55;40.63;100223.50;4997382;28;20053;-76
2022/01/10 01:33:26;;;;;;;7.55;6.18;;;;;;;18.54;40.62;100228.03;4995330;28;20413;-75
2022/01/10 01:35:54;;;;;;;7.15;6.45;;;;;;;18.56;40.76;100235.94;5028010;28;20490;-76
2022/01/10 01:38:23;;;;;;;6.82;6.03;;;;;;;18.56;40.62;100235.09;4994906;28;20083;-75
2022/01/10 01:41:09;;;;;;;7.40;6.15;;;;;;;18.56;40.59;100237.78;4996570;28;20402;-75
2022/01/10 01:43:36;;;;;;;7.38;6.03;;;;;;;18.55;40.56;100228.88;4995203;28;20062;-75
2022/01/10 01:46:04;;;;;;;7.22;6.50;;;;;;;18.56;40.65;100224.38;4996754;28;20042;-76
2022/01/10 01:48:31;;;;;;;6.45;5.57;;;;;;;18.56;40.61;100230.59;4994671;28;20050;-76
2022/01/10 01:50:59;;;;;;;7.28;5.53;;;;;;;18.56;40.61;100230.59;4995628;28;20059;-75
2022/01/10 01:53:26;;;;;;;6.63;5.82;;;;;;;18.55;40.59;100228.88;4995355;28;20047;-76
2022/01/10 01:55:54;;;;;;;6.85;5.57;;;;;;;18.56;40.45;100227.91;4996959;28;20043;-76
2022/01/10 01:58:21;;;;;;;7.10;5.70;;;;;;;18.57;40.71;100221.53;4995617;28;20054;-75
2022/01/10 02:00:49;;;;;;;6.25;5.65;;;;;;;18.55;40.70;100220.81;4995674;28;20057;-75
2022/01/10 02:03:16;;;;;;;6.68;5.97;;;;;;;18.57;40.59;100224.22;4995216;28;20045;-75
2022/01/10 02:05:48;;;;;;;7.07;6.05;;;;;;;18.58;40.47;100225.91;5011480;28;20065;-75
2022/01/10 02:08:16;;;;;;;6.80;5.50;;;;;;;18.57;40.48;100224.22;4978745;28;20057;-75
2022/01/10 02:10:44;;;;;;;5.70;5.07;;;;;;;18.57;40.50;100226.91;4996536;28;20066;-75
2022/01/10 02:13:11;;;;;;;7.55;5.45;;;;;;;18.57;40.56;100226.06;4996060;28;20049;-75
2022/01/10 02:18:14;;;;;;;6.07;5.35;;;;;;;18.57;40.49;100226.91;5009069;28;20046;-75
2022/01/10 02:20:47;;;;;;;5.68;5.07;;;;;;;18.57;40.56;100221.53;5014100;28;20057;-75
2022/01/10 02:23:16;;;;;;;5.57;4.93;;;;;;;18.58;40.42;100211.66;5013525;28;20056;-75
2022/01/10 02:26:02;;;;;;;5.32;4.82;;;;;;;18.59;40.36;100214.19;5022619;28;20405;-75
2022/01/10 02:28:32;;;;;;;5.60;5.00;;;;;;;18.59;40.46;100216.03;5013740;28;20060;-75
2022/01/10 02:31:00;;;;;;;5.10;4.60;;;;;;;18.58;40.33;100222.38;5013703;28;20050;-75
2022/01/10 02:33:30;;;;;;;7.50;5.05;;;;;;;18.58;40.41;100215.19;5014785;28;20480;-75
2022/01/10 02:38:30;;;;;;;5.05;4.47;;;;;;;18.57;40.26;100218.88;5014335;28;20473;-77
2022/01/10 02:40:58;;;;;;;5.05;4.35;;;;;;;18.56;40.40;100214.50;5014060;28;20050;-77
2022/01/10 02:43:28;;;;;;;5.72;5.15;;;;;;;18.56;40.12;100214.50;5014313;28;20050;-76
2022/01/10 02:45:56;;;;;;;5.45;4.30;;;;;;;18.56;40.33;100208.28;5013459;28;20398;-76
2022/01/10 02:48:24;;;;;;;5.53;4.88;;;;;;;18.56;40.28;100197.56;5014083;28;20057;-76
2022/01/10 02:50:51;;;;;;;5.15;4.53;;;;;;;18.54;40.32;100203.91;5013749;28;20054;-77
2022/01/10 02:53:19;;;;;;;7.93;4.53;;;;;;;18.56;40.18;100202.94;5013616;28;20050;-76
2022/01/10 02:55:47;;;;;;;5.13;4.35;;;;;;;18.55;40.30;100199.38;5014980;28;20122;-76
2022/01/10 02:58:15;;;;;;;5.55;3.97;;;;;;;18.55;40.23;100196.69;4998288;28;20061;-76
2022/01/10 03:00:42;;;;;;;6.13;4.32;;;;;;;18.55;40.18;100204.75;5013193;28;20049;-76
2022/01/10 03:03:10;;;;;;;5.47;4.47;;;;;;;18.56;40.22;100205.63;5014056;28;20386;-76
2022/01/10 03:05:37;;;;;;;4.82;3.92;;;;;;;18.54;40.17;100198.53;5013337;28;20049;-76
2022/01/10 03:08:05;;;;;;;5.47;4.18;;;;;;;18.54;40.17;100198.53;5014539;28;20060;-76
2022/01/10 03:10:33;;;;;;;5.43;4.30;;;;;;;18.53;40.18;100199.53;5013677;28;20050;-76
2022/01/10 03:13:00;;;;;;;5.25;4.15;;;;;;;18.53;40.18;100202.22;5014440;28;20045;-76
2022/01/10 03:15:29;;;;;;;4.85;4.18;;;;;;;18.53;40.15;100207.56;5014129;28;20054;-76
2022/01/10 03:17:57;;;;;;;4.22;3.83;;;;;;;18.54;40.25;100208.41;5013415;28;20431;-76
2022/01/10 03:20:25;;;;;;;6.25;4.18;;;;;;;18.53;40.16;100215.63;5013098;28;20054;-76
2022/01/10 03:22:53;;;;;;;4.20;3.75;;;;;;;18.51;40.18;100214.94;5014882;28;20046;-76
2022/01/10 03:25:22;;;;;;;4.20;3.80;;;;;;;18.51;40.06;100219.41;5013337;28;20042;-76
2022/01/10 03:27:55;;;;;;;5.32;4.32;;;;;;;18.52;40.20;100229.16;5013515;28;20054;-76
2022/01/10 03:30:22;;;;;;;4.30;3.90;;;;;;;18.51;40.21;100228.34;5012960;28;20054;-76
2022/01/10 03:32:51;;;;;;;4.78;3.83;;;;;;;18.52;40.12;100229.16;5012893;28;20054;-76
2022/01/10 03:35:30;;;;;;;4.15;3.53;;;;;;;18.52;40.03;100237.22;5012756;28;20054;-76
2022/01/10 03:37:57;;;;;;;4.60;3.70;;;;;;;18.52;40.06;100245.25;5030024;28;20045;-76
2022/01/10 03:40:29;;;;;;;4.38;3.72;;;;;;;18.53;39.96;100249.63;4996914;28;20056;-76
2022/01/10 03:43:01;;;;;;;4.75;4.13;;;;;;;18.52;40.05;100243.41;5012708;28;20061;-76
2022/01/10 03:45:28;;;;;;;4.18;3.75;;;;;;;18.52;40.06;100246.09;5013123;28;20046;-76
2022/01/10 03:47:55;;;;;;;4.30;3.72;;;;;;;18.52;39.98;100251.47;5014109;28;20061;-76
2022/01/10 03:50:25;;;;;;;4.20;3.67;;;;;;;18.51;39.92;100255.13;5012554;28;20061;-76
2022/01/10 03:52:53;;;;;;;7.10;4.28;;;;;;;18.52;39.95;100254.13;5013195;28;20513;-76
2022/01/10 03:55:20;;;;;;;5.32;4.00;;;;;;;18.52;39.90;100254.13;5013430;28;20367;-76
2022/01/10 03:57:48;;;;;;;4.10;3.70;;;;;;;18.51;39.88;100259.63;5013236;28;20057;-76
2022/01/10 04:00:16;;;;;;;4.80;3.90;;;;;;;18.52;40.00;100264.03;5013208;28;20061;-76
2022/01/10 04:02:51;;;;;;;4.72;3.60;;;;;;;18.50;39.89;100255.25;5013989;28;20053;-76
2022/01/10 04:05:23;;;;;;;4.78;3.88;;;;;;;18.50;39.97;100255.25;5012908;28;20050;-76
2022/01/10 04:07:51;;;;;;;5.03;4.40;;;;;;;18.49;39.87;100259.78;5012537;28;20061;-75
2022/01/10 04:10:20;;;;;;;4.95;3.80;;;;;;;18.48;40.11;100263.44;5013275;28;20054;-76
2022/01/10 04:12:47;;;;;;;5.15;4.18;;;;;;;18.49;40.17;100262.47;5012241;28;20045;-76
2022/01/10 04:15:15;;;;;;;4.57;3.50;;;;;;;18.48;39.96;100255.41;5012660;28;20050;-76
2022/01/10 04:17:43;;;;;;;3.78;3.38;;;;;;;18.51;40.06;100264.97;5012508;28;20379;-76
2022/01/10 04:20:10;;;;;;;4.85;3.72;;;;;;;18.50;40.06;100261.47;5011794;28;20054;-76
2022/01/10 04:22:38;;;;;;;5.38;4.32;;;;;;;18.51;40.12;100270.34;5012348;28;20053;-76
2022/01/10 04:25:06;;;;;;;4.15;3.53;;;;;;;18.49;40.03;100264.28;5012412;28;20056;-75
2022/01/10 04:27:34;;;;;;;4.90;4.05;;;;;;;18.51;40.08;100267.66;5011896;28;20382;-76
2022/01/10 04:30:03;;;;;;;4.15;3.70;;;;;;;18.50;40.17;100276.69;5013029;28;20065;-76
2022/01/10 04:32:32;;;;;;;4.63;4.20;;;;;;;18.49;40.14;100272.34;5012566;28;20064;-76
2022/01/10 04:35:00;;;;;;;5.07;4.05;;;;;;;18.49;40.02;100278.53;5012055;28;20532;-76
2022/01/10 04:37:29;;;;;;;4.47;3.83;;;;;;;18.50;40.12;100282.06;5011785;28;20060;-76
2022/01/10 04:39:56;;;;;;;4.63;4.07;;;;;;;18.49;40.11;100281.22;5013929;28;20049;-75
2022/01/10 04:42:24;;;;;;;5.70;4.00;;;;;;;18.50;40.11;100290.09;5012060;28;20065;-75
2022/01/10 04:44:52;;;;;;;5.65;4.22;;;;;;;18.49;40.29;100280.38;5011901;28;20057;-75
2022/01/10 04:47:21;;;;;;;5.28;4.50;;;;;;;18.49;40.07;100283.06;5012884;28;20054;-75
2022/01/10 04:52:30;;;;;;;4.60;4.05;;;;;;;18.48;40.00;100295.63;5012389;28;20417;-75
2022/01/10 04:54:59;;;;;;;4.60;4.00;;;;;;;18.48;40.09;100303.66;5011814;28;20050;-75
2022/01/10 04:57:27;;;;;;;5.50;4.22;;;;;;;18.47;39.99;100299.28;5011688;28;20399;-74
2022/01/10 04:59:54;;;;;;;4.80;4.30;;;;;;;18.48;39.94;100305.50;5012060;28;20068;-75
2022/01/10 05:02:22;;;;;;;5.72;4.03;;;;;;;18.48;39.99;100308.19;5012376;28;20065;-75
2022/01/10 05:04:49;;;;;;;4.60;4.07;;;;;;;18.47;39.98;100312.69;5013275;28;20042;-75
2022/01/10 05:07:17;;;;;;;5.82;4.63;;;;;;;18.47;39.79;100311.81;5012414;28;20053;-75
2022/01/10 05:09:47;;;;;;;5.22;4.28;;;;;;;18.47;40.03;100327.91;5011877;28;20045;-75
2022/01/10 05:12:16;;;;;;;6.90;4.22;;;;;;;18.47;39.81;100322.53;5012071;28;20054;-75
2022/01/10 05:14:44;;;;;;;5.13;4.60;;;;;;;18.47;39.60;100325.22;5011768;28;20046;-75
2022/01/10 05:17:11;;;;;;;5.43;4.82;;;;;;;18.46;39.84;100327.06;5012023;28;20061;-75
2022/01/10 05:19:39;;;;;;;5.32;4.82;;;;;;;18.46;39.75;100334.25;5011667;28;20049;-75
2022/01/10 05:22:06;;;;;;;6.32;5.07;;;;;;;18.44;39.80;100339.75;5011621;28;20493;-76
2022/01/10 05:24:34;;;;;;;5.25;4.75;;;;;;;18.45;39.89;100337.94;5013397;28;20053;-76
2022/01/10 05:27:01;;;;;;;5.07;4.57;;;;;;;18.44;39.94;100350.47;5015093;28;20049;-75
2022/01/10 05:29:29;;;;;;;6.03;4.75;;;;;;;18.43;39.73;100342.56;5015291;28;20054;-76
2022/01/10 05:31:56;;;;;;;5.50;4.90;;;;;;;18.42;39.72;100347.06;5015129;28;20054;-76
2022/01/10 05:34:35;;;;;;;6.00;4.72;;;;;;;18.42;39.76;100348.91;5000955;28;20053;-76
2022/01/10 05:37:02;;;;;;;6.90;4.47;;;;;;;18.43;39.69;100355.97;5015215;28;20050;-75
2022/01/10 05:39:29;;;;;;;5.00;4.50;;;;;;;18.43;39.65;100353.28;5015301;28;20046;-75
2022/01/10 05:41:58;;;;;;;5.10;4.60;;;;;;;18.43;39.63;100358.63;5016503;28;20053;-75
2022/01/10 05:44:26;;;;;;;5.70;4.88;;;;;;;18.43;39.73;100364.00;5015251;28;20052;-75
2022/01/10 05:46:54;;;;;;;5.50;4.47;;;;;;;18.42;39.58;100360.47;5016540;28;20045;-75
2022/01/10 05:49:26;;;;;;;5.63;5.00;;;;;;;18.44;39.50;100371.09;5015504;28;20050;-75
2022/01/10 05:51:57;;;;;;;6.07;4.95;;;;;;;18.45;39.57;100367.41;5015042;28;20509;-75
2022/01/10 05:54:32;;;;;;;6.60;4.72;;;;;;;18.44;39.56;100371.09;5014660;28;20053;-75
2022/01/10 05:57:01;;;;;;;5.30;4.80;;;;;;;18.43;39.49;100367.56;5014660;28;20050;-75
2022/01/10 05:59:31;;;;;;;5.38;4.35;;;;;;;18.43;39.37;100380.09;5014893;28;20057;-76
2022/01/10 06:02:02;;;;;;;5.55;4.47;;;;;;;18.43;39.35;100375.59;5015615;28;20521;-76
2022/01/10 06:04:31;;;;;;;5.90;4.93;;;;;;;18.42;39.39;100378.41;5014188;28;20405;-76
2022/01/10 06:07:07;;;;;;;5.22;4.38;;;;;;;18.42;39.36;100383.75;5015133;28;20478;-76
2022/01/10 06:09:35;;;;;;;6.65;5.45;;;;;;;18.43;39.31;100380.09;5014511;28;20061;-76
2022/01/10 06:12:03;;;;;;;4.95;4.15;;;;;;;18.41;39.15;100382.91;5014379;28;20052;-76
2022/01/10 06:14:30;;;;;;;5.13;4.63;;;;;;;18.43;39.17;100385.44;5013875;28;20050;-77
2022/01/10 06:16:57;;;;;;;5.40;4.38;;;;;;;18.41;39.10;100392.78;5014400;28;20057;-76
2022/01/10 06:19:26;;;;;;;5.32;4.78;;;;;;;18.41;39.07;100390.94;5014431;28;20069;-77
2022/01/10 06:21:54;;;;;;;4.55;4.15;;;;;;;18.42;39.09;100394.47;5014061;28;20049;-76
2022/01/10 06:24:21;;;;;;;5.60;4.47;;;;;;;18.40;39.12;100391.09;5014331;28;20046;-76
2022/01/10 06:26:49;;;;;;;6.20;4.97;;;;;;;18.41;38.99;100395.47;5014018;28;20363;-76
2022/01/10 06:29:17;;;;;;;5.55;4.95;;;;;;;18.39;39.25;100406.34;5014565;28;20053;-76
2022/01/10 06:31:44;;;;;;;5.07;4.47;;;;;;;18.39;39.23;100400.97;5013506;28;20058;-77
2022/01/10 06:34:15;;;;;;;6.50;4.63;;;;;;;18.39;39.17;100397.41;5014157;28;20049;-76
2022/01/10 06:36:45;;;;;;;5.28;4.35;;;;;;;18.39;39.31;100402.78;5013680;28;20053;-76
2022/01/10 06:39:14;;;;;;;7.53;4.47;;;;;;;18.38;39.10;100404.63;5014057;28;20053;-76
2022/01/10 06:41:44;;;;;;;4.68;4.18;;;;;;;18.38;39.12;100406.44;5014363;28;20061;-76
2022/01/10 06:44:12;;;;;;;5.35;4.53;;;;;;;18.37;39.07;100410.97;5013610;28;20494;-75
2022/01/10 06:46:40;;;;;;;6.18;4.30;;;;;;;18.38;38.97;100418.03;5013512;28;20050;-76
2022/01/10 06:49:08;;;;;;;5.55;4.65;;;;;;;18.38;38.99;100423.38;5014194;28;20046;-75
2022/01/10 06:51:36;;;;;;;5.70;4.80;;;;;;;18.37;38.96;100419.00;5013167;28;20054;-75
2022/01/10 06:54:03;;;;;;;4.95;4.10;;;;;;;18.37;39.04;100419.00;5013697;28;20046;-75
2022/01/10 06:56:31;;;;;;;4.40;4.00;;;;;;;18.37;38.95;100423.53;5013970;28;20050;-75
2022/01/10 06:59:00;;;;;;;5.78;4.65;;;;;;;18.38;38.92;100435.94;5012950;28;20058;-76
2022/01/10 07:01:35;;;;;;;4.88;4.38;;;;;;;18.36;39.01;100436.06;5046807;28;20049;-76
2022/01/10 07:04:07;;;;;;;5.13;3.97;;;;;;;18.34;39.02;100432.66;5013797;28;20339;-76
2022/01/10 07:06:34;;;;;;;4.30;3.90;;;;;;;18.34;38.89;100443.38;5013298;28;20413;-75
2022/01/10 07:09:08;;;;;;;4.68;4.00;;;;;;;18.35;38.94;100441.56;5013433;28;20382;-76
2022/01/10 07:11:41;;;;;;;;;;;;;;;18.34;38.99;100453.25;5014279;28;20054;-76
2022/01/10 07:14:12;;;;;;;5.15;4.40;;;;;;;18.33;39.19;100454.25;5013682;28;19921;-75
2022/01/10 07:16:41;;;;;;;5.18;4.25;;;;;;;18.34;39.15;100458.63;5013579;28;20072;-76
2022/01/10 07:19:10;;;;;;;4.90;4.18;;;;;;;18.33;39.22;100462.28;5012734;28;20501;-76
2022/01/10 07:21:40;;;;;;;5.07;4.53;;;;;;;18.35;38.99;100468.34;5013269;28;20057;-75
2022/01/10 07:24:10;;;;;;;5.10;4.38;;;;;;;18.34;39.08;100477.38;5013273;28;20053;-75
2022/01/10 07:26:38;;;;;;;5.03;4.53;;;;;;;18.35;39.02;100477.28;5014192;28;20050;-76
2022/01/10 07:29:07;;;;;;;6.20;4.35;;;;;;;18.36;38.98;100480.78;5014926;28;20041;-76
2022/01/10 07:31:35;;;;;;;4.97;4.43;;;;;;;18.36;39.11;100491.50;5014521;28;20053;-76
2022/01/10 07:34:03;;;;;;;5.43;4.32;;;;;;;18.37;39.09;100498.56;5014851;28;20049;-76
2022/01/10 07:36:30;;;;;;;6.32;4.00;;;;;;;18.36;39.23;100496.88;5014004;28;20049;-76
2022/01/10 07:38:58;;;;;;;4.82;4.38;;;;;;;18.38;39.10;100505.63;5014453;28;20045;-76
2022/01/10 07:41:26;;;;;;;8.85;4.80;;;;;;;18.37;39.39;100514.66;5013378;28;20054;-76
2022/01/10 07:43:56;;;;;;;7.13;4.95;;;;;;;18.34;39.49;100513.06;5012716;28;20057;-75
2022/01/10 07:46:24;;;;;;;7.65;4.70;;;;;;;18.33;39.91;100515.88;5014389;28;20086;-76
2022/01/10 07:48:54;;;;;;;7.22;4.20;;;;;;;18.34;39.95;100520.25;5011556;28;20046;-74
2022/01/10 07:51:23;;;;;;;7.18;4.93;;;;;;;18.33;40.25;100518.56;5012418;28;20054;-75
2022/01/10 07:53:51;;;;;;;5.80;4.70;;;;;;;18.31;39.91;100523.19;5013522;28;20052;-76
2022/01/10 07:56:18;;;;;;;7.15;4.30;;;;;;;18.28;40.06;100517.13;5013549;28;20046;-76
2022/01/10 07:58:50;;;;;;;7.97;5.22;;;;;;;18.28;39.86;100518.97;5013754;28;20046;-75
2022/01/10 08:01:19;;;;;;;5.18;4.40;;;;;;;18.27;40.68;100520.81;5014444;28;20053;-76
2022/01/10 08:03:52;;;;;;;9.73;5.45;;;;;;;18.25;41.27;100519.22;5011862;28;20056;-75
2022/01/10 08:06:20;;;;;;;6.73;5.03;;;;;;;18.24;41.60;100530.94;5013806;28;20393;-76
2022/01/10 08:08:49;;;;;;;5.70;4.72;;;;;;;18.23;41.74;100527.41;5010603;28;20065;-75
2022/01/10 08:11:16;;;;;;;6.45;5.13;;;;;;;18.24;41.64;100517.53;5011992;28;20052;-76
2022/01/10 08:13:43;;;;;;;6.80;4.97;;;;;;;18.24;41.10;100523.75;5012252;28;20045;-75
2022/01/10 08:16:11;;;;;;;11.43;5.93;;;;;;;18.27;41.30;100530.66;5013125;28;20042;-74
2022/01/10 08:18:38;;;;;;;7.45;4.90;;;;;;;18.28;41.57;100529.69;5023770;28;20057;-74
2022/01/10 08:21:06;;;;;;;9.13;5.40;;;;;;;18.29;41.46;100536.75;5032395;28;20056;-75
2022/01/10 08:23:34;;;;;;;7.32;5.30;;;;;;;18.31;41.32;100534.78;5031137;28;20064;-75
2022/01/10 08:26:03;;;;;;;8.15;6.15;;;;;;;18.28;41.08;100535.91;5032482;28;20397;-75
2022/01/10 08:28:36;;;;;;;9.43;7.68;;;;;;;18.25;40.36;100527.28;5019658;28;20061;-75
2022/01/10 08:31:05;;;;;;;8.88;7.97;;;;;;;18.22;39.79;100523.00;5013330;28;20493;-75
2022/01/10 08:33:32;;;;;;;10.90;9.35;;;;;;;18.19;38.92;100533.13;5013238;28;20049;-75
2022/01/10 08:35:59;;;;;;;12.40;9.93;;;;;;;18.15;38.17;100526.34;5013839;28;20042;-75
2022/01/10 08:38:27;;;;;;;12.43;9.77;;;;;;;18.12;38.52;100532.84;5013583;28;20046;-76
2022/01/10 08:40:54;;;;;;;13.13;9.40;;;;;;;18.12;38.55;100542.72;5013564;28;20053;-76
2022/01/10 08:43:21;;;;;;;12.32;9.60;;;;;;;18.10;38.49;100534.78;5012059;28;20385;-77
2022/01/10 08:45:49;;;;;;;10.00;8.95;;;;;;;18.10;38.78;100528.56;5013005;28;20046;-76
2022/01/10 08:48:16;;;;;;;12.10;8.77;;;;;;;18.10;38.72;100534.78;5012930;28;20064;-76
2022/01/10 08:50:44;;;;;;;10.18;7.70;;;;;;;18.10;39.15;100531.25;5013372;28;20494;-76
2022/01/10 08:53:11;;;;;;;12.05;8.55;;;;;;;18.10;39.01;100532.09;5012024;28;20076;-76
2022/01/10 08:55:38;;;;;;;8.77;7.85;;;;;;;18.10;38.82;100526.75;5013617;28;20080;-76
2022/01/10 08:58:06;;;;;;;9.73;7.10;;;;;;;18.12;39.07;100532.84;5013346;28;20068;-76
2022/01/10 09:00:33;;;;;;;11.20;7.60;;;;;;;18.12;39.14;100530.16;5017156;28;20060;-75
2022/01/10 09:03:02;;;;;;;12.63;7.68;;;;;;;18.12;39.13;100532.00;5017179;28;20061;-76
2022/01/10 09:05:30;;;;;;;10.05;6.75;;;;;;;18.13;38.93;100549.75;5017027;28;20046;-75
2022/01/10 09:07:58;;;;;;;11.70;6.55;;;;;;;18.11;38.87;100560.63;4999670;28;20053;-75
2022/01/10 09:10:26;;;;;;;8.88;6.50;;;;;;;18.12;38.96;100574.84;5016877;28;20053;-75
2022/01/10 09:12:59;;;;;;;8.43;5.97;;;;;;;18.11;38.69;100582.03;5016676;28;20050;-75
2022/01/10 09:15:27;;;;;;;10.52;6.70;;;;;;;18.10;38.64;100601.75;5016549;28;20466;-76
2022/01/10 09:17:54;;;;;;;10.35;6.35;;;;;;;18.10;38.63;100609.78;5015280;28;20057;-75
2022/01/10 09:20:21;;;;;;;12.00;6.13;;;;;;;18.10;38.40;100609.78;5016604;28;20050;-74
2022/01/10 09:22:49;;;;;;;9.35;5.88;;;;;;;18.10;38.28;100612.47;5016938;28;20046;-74
2022/01/10 09:25:17;;;;;;;6.75;5.47;;;;;;;18.11;38.30;100610.63;5016792;28;20053;-75
2022/01/10 09:27:44;;;;;;;7.72;5.13;;;;;;;18.13;38.30;100606.84;5016604;28;20049;-79
2022/01/10 09:30:12;;;;;;;8.50;5.88;;;;;;;18.16;38.46;100620.00;5015906;28;20046;-79
2022/01/10 09:32:40;;;;;;;7.78;5.25;;;;;;;18.19;38.55;100619.75;5015729;28;20057;-80
2022/01/10 09:35:08;;;;;;;9.95;6.72;;;;;;;18.15;35.27;100617.44;5016444;28;20478;-79
2022/01/10 09:37:35;;;;;;;8.90;5.75;;;;;;;18.11;38.59;100624.03;5015999;28;20053;-79
2022/01/10 09:40:06;;;;;;;6.93;5.32;;;;;;;18.11;38.79;100626.72;5016215;28;20057;-80
2022/01/10 09:42:34;;;;;;;7.03;5.38;;;;;;;18.13;38.81;100614.91;5015308;28;20093;-80
2022/01/10 09:45:04;;;;;;;8.60;4.65;;;;;;;18.15;39.01;100623.66;5016282;28;20482;-79
2022/01/10 09:47:32;;;;;;;7.25;5.72;;;;;;;18.17;38.92;100627.06;5016117;28;20406;-78
2022/01/10 09:50:08;;;;;;;7.85;5.18;;;;;;;18.17;39.14;100627.06;5016281;28;20057;-78
2022/01/10 09:52:38;;;;;;;5.93;4.20;;;;;;;18.19;39.27;100629.59;5016168;28;20060;-80
2022/01/10 09:55:06;;;;;;;6.38;4.75;;;;;;;18.21;39.31;100631.19;5015999;28;20057;-80
2022/01/10 09:57:33;;;;;;;5.70;4.28;;;;;;;18.22;39.39;100632.03;5016013;28;20406;-80
2022/01/10 10:00:00;;;;;;;5.80;4.25;;;;;;;18.22;39.58;100630.19;5015638;28;20053;-80
2022/01/10 10:02:33;;;;;;;7.32;4.75;;;;;;;18.22;39.35;100632.88;5015800;28;20054;-82
2022/01/10 10:05:03;;;;;;;14.07;8.60;;;;;;;18.03;32.81;100630.91;5016054;28;20057;-81
2022/01/10 10:07:31;;;;;;;11.30;8.23;;;;;;;17.82;33.61;100637.19;5015624;28;20053;-82
2022/01/10 10:10:08;;;;;;;8.00;5.30;;;;;;;17.77;37.93;100630.38;5015431;28;20050;-80
2022/01/10 10:12:39;;;;;;;7.90;5.30;;;;;;;17.81;37.93;100635.47;5016081;28;20056;-80
2022/01/10 10:15:07;;;;;;;8.50;5.00;;;;;;;17.86;38.31;100649.34;5014316;28;20049;-80
2022/01/10 10:17:37;;;;;;;6.50;5.03;;;;;;;17.90;38.62;100645.44;5014463;28;20129;-79
2022/01/10 10:20:17;;;;;;;9.27;4.90;;;;;;;17.95;38.50;100653.97;5015485;28;20522;-79
2022/01/10 10:23:05;;;;;;;6.50;4.85;;;;;;;17.98;38.85;100646.47;5015320;28;20042;-79
2022/01/10 10:25:33;;;;;;;5.82;4.43;;;;;;;18.01;38.69;100643.56;5015026;28;20402;-81
2022/01/10 10:28:02;;;;;;;4.88;4.15;;;;;;;18.04;38.95;100643.31;5015556;28;20054;-80
2022/01/10 10:30:31;;;;;;;6.50;4.50;;;;;;;18.06;38.88;100637.81;5015292;28;20046;-80
2022/01/10 10:33:18;;;;;;;9.32;4.88;;;;;;;18.08;38.99;100651.94;5014290;28;20068;-80
2022/01/10 10:35:56;;;;;;;7.00;4.35;;;;;;;18.11;39.24;100646.34;5015438;28;20038;-80
2022/01/10 10:38:27;;;;;;;5.90;4.47;;;;;;;18.13;39.16;100662.28;5014633;28;20078;-80
2022/01/10 10:41:00;;;;;;;6.70;3.78;;;;;;;18.14;39.05;100659.44;5015298;28;20390;-79
2022/01/10 10:43:38;;;;;;;7.68;4.07;;;;;;;18.14;39.12;100664.81;5015208;28;20060;-80
2022/01/10 10:46:11;;;;;;;5.85;4.35;;;;;;;18.14;39.21;100659.44;5014814;28;20045;-79
2022/01/10 10:48:53;;;;;;;9.45;4.55;;;;;;;18.13;39.18;100652.41;5013933;28;20049;-79
2022/01/10 10:51:20;;;;;;;9.90;3.92;;;;;;;18.14;39.17;100650.56;5014823;28;20061;-79
2022/01/10 10:53:47;;;;;;;7.35;4.68;;;;;;;18.15;39.15;100652.25;5013658;28;20411;-79
2022/01/10 10:56:15;;;;;;;7.03;4.32;;;;;;;18.14;39.21;100639.84;5014821;28;20041;-79
2022/01/10 10:58:43;;;;;;;5.35;3.70;;;;;;;18.15;39.16;100639.75;5014629;28;20049;-78
2022/01/10 11:01:10;;;;;;;5.55;4.20;;;;;;;18.14;39.47;100640.69;5014975;28;20046;-81
2022/01/10 11:03:39;;;;;;;6.95;3.70;;;;;;;18.13;39.28;100644.38;5013274;28;20053;-79
2022/01/10 11:06:08;;;;;;;6.60;3.75;;;;;;;18.15;39.42;100654.94;5014370;28;20046;-79
2022/01/10 11:08:39;;;;;;;6.53;4.45;;;;;;;18.15;39.30;100661.19;5013345;28;20050;-77
2022/01/10 11:11:07;;;;;;;6.28;4.57;;;;;;;18.14;39.06;100659.44;5014367;28;20046;-75
2022/01/10 11:13:37;;;;;;;9.95;4.40;;;;;;;18.15;39.31;100661.19;5014233;28;20058;-76
2022/01/10 11:16:04;;;;;;;8.43;4.28;;;;;;;18.15;39.16;100666.53;4996815;28;20050;-77
2022/01/10 11:18:33;;;;;;;5.97;4.35;;;;;;;18.14;39.02;100675.53;5013391;28;20049;-77
2022/01/10 11:21:01;;;;;;;7.22;5.20;;;;;;;18.15;38.97;100676.38;5013748;28;20064;-77
2022/01/10 11:23:41;;;;;;;8.93;4.32;;;;;;;18.12;39.04;100677.50;5014310;28;20053;-75
2022/01/10 11:26:09;;;;;;;6.13;4.30;;;;;;;18.14;39.23;100678.22;4996816;28;20053;-75
2022/01/10 11:29:07;;;;;;;5.82;4.65;;;;;;;18.13;39.03;100676.50;5014826;28;20045;-74
2022/01/10 11:31:36;;;;;;;6.88;4.43;;;;;;;18.12;39.28;100680.19;5001163;28;20060;-74
2022/01/10 11:34:04;;;;;;;9.00;5.07;;;;;;;18.12;39.36;100685.53;5013934;28;20049;-74
2022/01/10 11:36:31;;;;;;;7.13;4.47;;;;;;;18.12;39.34;100684.69;5014093;28;20052;-74
2022/01/10 11:39:10;;;;;;;7.07;4.65;;;;;;;18.13;39.63;100683.72;5014119;28;20057;-75
2022/01/10 11:41:38;;;;;;;8.43;4.05;;;;;;;18.12;39.38;100690.06;5013984;28;20057;-75
2022/01/10 11:44:07;;;;;;;7.35;4.82;;;;;;;18.12;39.18;100682.88;5014194;28;20046;-75
2022/01/10 11:46:42;;;;;;;6.15;4.05;;;;;;;18.12;39.38;100684.69;5013666;28;20386;-75
2022/01/10 11:49:10;;;;;;;7.25;4.40;;;;;;;18.13;39.59;100689.06;5014208;28;20117;-74
2022/01/10 11:51:49;;;;;;;7.05;4.45;;;;;;;18.12;39.50;100690.91;5014003;28;20057;-74